sensor_id;sensor_type;location;lat;lon;timestamp;temperature;humidity
16283;DHT22;8249;48.708;9.030;2024-02-15T00:01:41;10.20;99.90
16283;DHT22;8249;48.708;9.030;2024-02-15T00:04:08;10.20;99.90
16283;DHT22;8249;48.708;9.030;2024-02-15T00:06:36;10.30;99.90
16283;DHT22;8249;48.708;9.030;2024-02-15T00:09:04;10.20;99.90
16283;DHT22;8249;48.708;9.030;2024-02-15T00:11:31;10.30;99.90
16283;DHT22;8249;48.708;9.030;2024-02-15T00:13:59;10.30;99.90
16283;DHT22;8249;48.708;9.030;2024-02-15T00:16:27;10.30;99.90
16283;DHT22;8249;48.708;9.030;2024-02-15T00:18:55;10.40;99.90
16283;DHT22;8249;48.708;9.030;2024-02-15T00:21:22;10.40;99.90
16283;DHT22;8249;48.708;9.030;2024-02-15T00:23:49;10.50;99.90
16283;DHT22;8249;48.708;9.030;2024-02-15T00:26:17;10.50;99.90
16283;DHT22;8249;48.708;9.030;2024-02-15T00:28:44;10.50;99.90
16283;DHT22;8249;48.708;9.030;2024-02-15T00:31:12;10.50;99.90
16283;DHT22;8249;48.708;9.030;2024-02-15T00:33:42;10.40;99.90
16283;DHT22;8249;48.708;9.030;2024-02-15T00:36:10;10.40;99.90
16283;DHT22;8249;48.708;9.030;2024-02-15T00:38:36;10.30;99.90
16283;DHT22;8249;48.708;9.030;2024-02-15T00:41:05;10.30;99.90
16283;DHT22;8249;48.708;9.030;2024-02-15T00:43:35;10.20;99.90
16283;DHT22;8249;48.708;9.030;2024-02-15T00:46:03;10.20;99.90
16283;DHT22;8249;48.708;9.030;2024-02-15T00:48:29;10.10;99.90
16283;DHT22;8249;48.708;9.030;2024-02-15T00:50:57;10.10;99.90
16283;DHT22;8249;48.708;9.030;2024-02-15T00:53:24;10.10;99.90
16283;DHT22;8249;48.708;9.030;2024-02-15T00:55:51;10.00;99.90
16283;DHT22;8249;48.708;9.030;2024-02-15T00:58:18;9.90;99.90
16283;DHT22;8249;48.708;9.030;2024-02-15T01:00:59;9.90;99.90
16283;DHT22;8249;48.708;9.030;2024-02-15T01:03:26;9.80;99.90
16283;DHT22;8249;48.708;9.030;2024-02-15T01:05:53;9.70;99.90
16283;DHT22;8249;48.708;9.030;2024-02-15T01:08:20;9.70;99.90
16283;DHT22;8249;48.708;9.030;2024-02-15T01:10:47;9.60;99.90
16283;DHT22;8249;48.708;9.030;2024-02-15T01:13:14;9.50;99.90
16283;DHT22;8249;48.708;9.030;2024-02-15T01:15:40;9.50;99.90
16283;DHT22;8249;48.708;9.030;2024-02-15T01:18:08;9.40;99.90
16283;DHT22;8249;48.708;9.030;2024-02-15T01:20:35;9.40;99.90
16283;DHT22;8249;48.708;9.030;2024-02-15T01:23:03;9.40;99.90
16283;DHT22;8249;48.708;9.030;2024-02-15T01:25:30;9.50;99.90
16283;DHT22;8249;48.708;9.030;2024-02-15T01:27:57;9.50;99.90
16283;DHT22;8249;48.708;9.030;2024-02-15T01:30:24;9.50;99.90
16283;DHT22;8249;48.708;9.030;2024-02-15T01:32:52;9.40;99.90
16283;DHT22;8249;48.708;9.030;2024-02-15T01:35:30;9.40;99.90
16283;DHT22;8249;48.708;9.030;2024-02-15T01:37:56;9.30;99.90
16283;DHT22;8249;48.708;9.030;2024-02-15T01:40:23;9.20;99.90
16283;DHT22;8249;48.708;9.030;2024-02-15T01:42:50;9.10;99.90
16283;DHT22;8249;48.708;9.030;2024-02-15T01:45:17;9.00;99.90
16283;DHT22;8249;48.708;9.030;2024-02-15T01:47:45;8.90;99.90
16283;DHT22;8249;48.708;9.030;2024-02-15T01:50:13;8.80;99.90
16283;DHT22;8249;48.708;9.030;2024-02-15T01:52:42;8.70;99.90
16283;DHT22;8249;48.708;9.030;2024-02-15T01:55:13;8.50;99.90
16283;DHT22;8249;48.708;9.030;2024-02-15T01:57:44;8.40;99.90
16283;DHT22;8249;48.708;9.030;2024-02-15T02:00:12;8.30;99.90
16283;DHT22;8249;48.708;9.030;2024-02-15T02:02:41;8.20;99.90
16283;DHT22;8249;48.708;9.030;2024-02-15T02:05:08;8.30;99.90
16283;DHT22;8249;48.708;9.030;2024-02-15T02:07:36;8.10;99.90
16283;DHT22;8249;48.708;9.030;2024-02-15T02:10:06;8.00;99.90
16283;DHT22;8249;48.708;9.030;2024-02-15T02:12:34;7.90;99.90
16283;DHT22;8249;48.708;9.030;2024-02-15T02:15:01;7.80;99.90
16283;DHT22;8249;48.708;9.030;2024-02-15T02:17:28;7.80;99.90
16283;DHT22;8249;48.708;9.030;2024-02-15T02:19:55;7.70;99.90
16283;DHT22;8249;48.708;9.030;2024-02-15T02:22:26;7.70;99.90
16283;DHT22;8249;48.708;9.030;2024-02-15T02:25:02;7.60;99.90
16283;DHT22;8249;48.708;9.030;2024-02-15T02:27:32;7.60;99.90
16283;DHT22;8249;48.708;9.030;2024-02-15T02:29:59;7.60;99.90
16283;DHT22;8249;48.708;9.030;2024-02-15T02:32:26;7.50;99.90
16283;DHT22;8249;48.708;9.030;2024-02-15T02:34:53;7.40;99.90
16283;DHT22;8249;48.708;9.030;2024-02-15T02:37:23;7.40;99.90
16283;DHT22;8249;48.708;9.030;2024-02-15T02:39:49;7.30;99.90
16283;DHT22;8249;48.708;9.030;2024-02-15T02:42:18;7.20;99.90
16283;DHT22;8249;48.708;9.030;2024-02-15T02:44:46;7.10;99.90
16283;DHT22;8249;48.708;9.030;2024-02-15T02:47:13;7.10;99.90
16283;DHT22;8249;48.708;9.030;2024-02-15T02:49:40;7.10;99.90
16283;DHT22;8249;48.708;9.030;2024-02-15T02:52:07;7.00;99.90
16283;DHT22;8249;48.708;9.030;2024-02-15T02:54:34;6.90;99.90
16283;DHT22;8249;48.708;9.030;2024-02-15T02:57:01;6.90;99.90
16283;DHT22;8249;48.708;9.030;2024-02-15T02:59:34;6.80;99.90
16283;DHT22;8249;48.708;9.030;2024-02-15T03:02:01;6.80;99.90
16283;DHT22;8249;48.708;9.030;2024-02-15T03:04:29;6.70;99.90
16283;DHT22;8249;48.708;9.030;2024-02-15T03:06:58;6.60;99.90
16283;DHT22;8249;48.708;9.030;2024-02-15T03:09:24;6.60;99.90
16283;DHT22;8249;48.708;9.030;2024-02-15T03:11:55;6.60;99.90
16283;DHT22;8249;48.708;9.030;2024-02-15T03:14:22;6.50;99.90
16283;DHT22;8249;48.708;9.030;2024-02-15T03:16:50;6.50;99.90
16283;DHT22;8249;48.708;9.030;2024-02-15T03:19:17;6.50;99.90
16283;DHT22;8249;48.708;9.030;2024-02-15T03:21:44;6.40;99.90
16283;DHT22;8249;48.708;9.030;2024-02-15T03:24:12;6.40;99.90
16283;DHT22;8249;48.708;9.030;2024-02-15T03:26:39;6.40;99.90
16283;DHT22;8249;48.708;9.030;2024-02-15T03:29:08;6.40;99.90
16283;DHT22;8249;48.708;9.030;2024-02-15T03:31:35;6.30;99.90
16283;DHT22;8249;48.708;9.030;2024-02-15T03:34:07;6.30;99.90
16283;DHT22;8249;48.708;9.030;2024-02-15T03:36:36;6.30;99.90
16283;DHT22;8249;48.708;9.030;2024-02-15T03:39:03;6.20;99.90
16283;DHT22;8249;48.708;9.030;2024-02-15T03:41:31;6.20;99.90
16283;DHT22;8249;48.708;9.030;2024-02-15T03:43:58;6.20;99.90
16283;DHT22;8249;48.708;9.030;2024-02-15T03:46:25;6.20;99.90
16283;DHT22;8249;48.708;9.030;2024-02-15T03:48:53;6.10;99.90
16283;DHT22;8249;48.708;9.030;2024-02-15T03:51:23;6.10;99.90
16283;DHT22;8249;48.708;9.030;2024-02-15T03:53:52;6.10;99.90
16283;DHT22;8249;48.708;9.030;2024-02-15T03:56:19;6.10;99.90
16283;DHT22;8249;48.708;9.030;2024-02-15T03:58:46;6.10;99.90
16283;DHT22;8249;48.708;9.030;2024-02-15T04:01:13;6.10;99.90
16283;DHT22;8249;48.708;9.030;2024-02-15T04:03:41;6.20;99.90
16283;DHT22;8249;48.708;9.030;2024-02-15T04:06:08;6.20;99.90
16283;DHT22;8249;48.708;9.030;2024-02-15T04:08:38;6.30;99.90
16283;DHT22;8249;48.708;9.030;2024-02-15T04:11:05;6.30;99.90
16283;DHT22;8249;48.708;9.030;2024-02-15T04:13:33;6.40;99.90
16283;DHT22;8249;48.708;9.030;2024-02-15T04:16:00;6.40;99.90
16283;DHT22;8249;48.708;9.030;2024-02-15T04:18:26;6.40;99.90
16283;DHT22;8249;48.708;9.030;2024-02-15T04:20:58;6.50;99.90
16283;DHT22;8249;48.708;9.030;2024-02-15T04:23:24;6.50;99.90
16283;DHT22;8249;48.708;9.030;2024-02-15T04:25:53;6.60;99.90
16283;DHT22;8249;48.708;9.030;2024-02-15T04:28:20;6.60;99.90
16283;DHT22;8249;48.708;9.030;2024-02-15T04:30:46;6.60;99.90
16283;DHT22;8249;48.708;9.030;2024-02-15T04:33:14;6.70;99.90
16283;DHT22;8249;48.708;9.030;2024-02-15T04:35:42;6.70;99.90
16283;DHT22;8249;48.708;9.030;2024-02-15T04:38:09;6.60;99.90
16283;DHT22;8249;48.708;9.030;2024-02-15T04:40:36;6.70;99.90
16283;DHT22;8249;48.708;9.030;2024-02-15T04:43:06;6.80;99.90
16283;DHT22;8249;48.708;9.030;2024-02-15T04:45:34;6.80;99.90
16283;DHT22;8249;48.708;9.030;2024-02-15T04:48:01;6.80;99.90
16283;DHT22;8249;48.708;9.030;2024-02-15T04:50:28;6.90;99.90
16283;DHT22;8249;48.708;9.030;2024-02-15T04:52:55;6.90;99.90
16283;DHT22;8249;48.708;9.030;2024-02-15T04:55:22;6.90;99.90
16283;DHT22;8249;48.708;9.030;2024-02-15T04:57:51;6.90;99.90
16283;DHT22;8249;48.708;9.030;2024-02-15T05:00:22;7.00;99.90
16283;DHT22;8249;48.708;9.030;2024-02-15T05:02:51;7.00;99.90
16283;DHT22;8249;48.708;9.030;2024-02-15T05:05:19;7.00;99.90
16283;DHT22;8249;48.708;9.030;2024-02-15T05:07:46;7.00;99.90
16283;DHT22;8249;48.708;9.030;2024-02-15T05:10:14;7.00;99.90
16283;DHT22;8249;48.708;9.030;2024-02-15T05:12:41;7.00;99.90
16283;DHT22;8249;48.708;9.030;2024-02-15T05:15:09;7.00;99.90
16283;DHT22;8249;48.708;9.030;2024-02-15T05:17:38;7.00;99.90
16283;DHT22;8249;48.708;9.030;2024-02-15T05:20:08;7.00;99.90
16283;DHT22;8249;48.708;9.030;2024-02-15T05:22:37;7.10;99.90
16283;DHT22;8249;48.708;9.030;2024-02-15T05:25:06;7.00;99.90
16283;DHT22;8249;48.708;9.030;2024-02-15T05:27:34;7.00;99.90
16283;DHT22;8249;48.708;9.030;2024-02-15T05:30:03;7.10;99.90
16283;DHT22;8249;48.708;9.030;2024-02-15T05:32:33;7.10;99.90
16283;DHT22;8249;48.708;9.030;2024-02-15T05:35:08;7.10;99.90
16283;DHT22;8249;48.708;9.030;2024-02-15T05:37:35;7.00;99.90
16283;DHT22;8249;48.708;9.030;2024-02-15T05:40:08;7.20;99.90
16283;DHT22;8249;48.708;9.030;2024-02-15T05:42:42;7.10;99.90
16283;DHT22;8249;48.708;9.030;2024-02-15T05:45:30;7.10;99.90
16283;DHT22;8249;48.708;9.030;2024-02-15T05:47:59;7.10;99.90
16283;DHT22;8249;48.708;9.030;2024-02-15T05:50:28;7.10;99.90
16283;DHT22;8249;48.708;9.030;2024-02-15T05:52:56;7.10;99.90
16283;DHT22;8249;48.708;9.030;2024-02-15T05:55:24;7.10;99.90
16283;DHT22;8249;48.708;9.030;2024-02-15T05:57:54;7.10;99.90
16283;DHT22;8249;48.708;9.030;2024-02-15T06:00:21;7.20;99.90
16283;DHT22;8249;48.708;9.030;2024-02-15T06:02:48;7.20;99.90
16283;DHT22;8249;48.708;9.030;2024-02-15T06:05:16;7.20;99.90
16283;DHT22;8249;48.708;9.030;2024-02-15T06:07:44;7.20;99.90
16283;DHT22;8249;48.708;9.030;2024-02-15T06:10:12;7.20;99.90
16283;DHT22;8249;48.708;9.030;2024-02-15T06:12:41;7.20;99.90
16283;DHT22;8249;48.708;9.030;2024-02-15T06:15:08;7.20;99.90
16283;DHT22;8249;48.708;9.030;2024-02-15T06:17:41;7.30;99.90
16283;DHT22;8249;48.708;9.030;2024-02-15T06:20:11;7.30;99.90
16283;DHT22;8249;48.708;9.030;2024-02-15T06:22:40;7.30;99.90
16283;DHT22;8249;48.708;9.030;2024-02-15T06:25:08;7.20;99.90
16283;DHT22;8249;48.708;9.030;2024-02-15T06:27:36;7.20;99.90
16283;DHT22;8249;48.708;9.030;2024-02-15T06:30:07;7.20;99.90
16283;DHT22;8249;48.708;9.030;2024-02-15T06:32:51;7.20;99.90
16283;DHT22;8249;48.708;9.030;2024-02-15T06:35:36;7.10;99.90
16283;DHT22;8249;48.708;9.030;2024-02-15T06:38:21;7.00;99.90
16283;DHT22;8249;48.708;9.030;2024-02-15T06:41:07;7.00;99.90
16283;DHT22;8249;48.708;9.030;2024-02-15T06:43:34;6.90;99.90
16283;DHT22;8249;48.708;9.030;2024-02-15T06:46:01;6.90;99.90
16283;DHT22;8249;48.708;9.030;2024-02-15T06:48:29;6.90;99.90
16283;DHT22;8249;48.708;9.030;2024-02-15T06:50:56;6.80;99.90
16283;DHT22;8249;48.708;9.030;2024-02-15T06:53:23;6.90;99.90
16283;DHT22;8249;48.708;9.030;2024-02-15T06:55:50;6.90;99.90
16283;DHT22;8249;48.708;9.030;2024-02-15T06:58:19;6.90;99.90
16283;DHT22;8249;48.708;9.030;2024-02-15T07:00:47;7.00;99.90
16283;DHT22;8249;48.708;9.030;2024-02-15T07:03:14;7.00;99.90
16283;DHT22;8249;48.708;9.030;2024-02-15T07:05:42;7.10;99.90
16283;DHT22;8249;48.708;9.030;2024-02-15T07:08:09;7.10;99.90
16283;DHT22;8249;48.708;9.030;2024-02-15T07:10:38;7.20;99.90
16283;DHT22;8249;48.708;9.030;2024-02-15T07:13:05;7.30;99.90
16283;DHT22;8249;48.708;9.030;2024-02-15T07:15:34;7.40;99.90
16283;DHT22;8249;48.708;9.030;2024-02-15T07:18:04;7.40;99.90
16283;DHT22;8249;48.708;9.030;2024-02-15T07:20:31;7.50;99.90
16283;DHT22;8249;48.708;9.030;2024-02-15T07:22:58;7.70;99.90
16283;DHT22;8249;48.708;9.030;2024-02-15T07:25:25;7.80;99.90
16283;DHT22;8249;48.708;9.030;2024-02-15T07:27:52;8.00;99.90
16283;DHT22;8249;48.708;9.030;2024-02-15T07:30:19;8.10;99.90
16283;DHT22;8249;48.708;9.030;2024-02-15T07:32:48;8.30;99.90
16283;DHT22;8249;48.708;9.030;2024-02-15T07:35:15;8.50;99.90
16283;DHT22;8249;48.708;9.030;2024-02-15T07:37:51;8.70;99.90
16283;DHT22;8249;48.708;9.030;2024-02-15T07:40:18;8.90;99.90
16283;DHT22;8249;48.708;9.030;2024-02-15T07:42:47;9.00;99.90
16283;DHT22;8249;48.708;9.030;2024-02-15T07:45:14;9.20;99.90
16283;DHT22;8249;48.708;9.030;2024-02-15T07:47:41;9.40;99.90
16283;DHT22;8249;48.708;9.030;2024-02-15T07:50:10;9.50;99.90
16283;DHT22;8249;48.708;9.030;2024-02-15T07:52:38;9.70;99.90
16283;DHT22;8249;48.708;9.030;2024-02-15T07:55:05;9.80;99.90
16283;DHT22;8249;48.708;9.030;2024-02-15T07:57:34;10.00;99.90
16283;DHT22;8249;48.708;9.030;2024-02-15T08:00:01;10.20;99.90
16283;DHT22;8249;48.708;9.030;2024-02-15T08:02:37;10.30;99.90
16283;DHT22;8249;48.708;9.030;2024-02-15T08:05:06;10.50;99.90
16283;DHT22;8249;48.708;9.030;2024-02-15T08:07:38;10.70;99.90
16283;DHT22;8249;48.708;9.030;2024-02-15T08:10:06;10.80;99.90
16283;DHT22;8249;48.708;9.030;2024-02-15T08:12:38;10.90;99.90
16283;DHT22;8249;48.708;9.030;2024-02-15T08:15:06;11.10;99.90
16283;DHT22;8249;48.708;9.030;2024-02-15T08:17:38;11.20;99.90
16283;DHT22;8249;48.708;9.030;2024-02-15T08:20:06;11.40;99.90
16283;DHT22;8249;48.708;9.030;2024-02-15T08:22:34;11.50;99.90
16283;DHT22;8249;48.708;9.030;2024-02-15T08:25:05;11.60;99.90
16283;DHT22;8249;48.708;9.030;2024-02-15T08:27:32;11.80;99.90
16283;DHT22;8249;48.708;9.030;2024-02-15T08:29:59;11.90;99.90
16283;DHT22;8249;48.708;9.030;2024-02-15T08:32:28;11.80;99.90
16283;DHT22;8249;48.708;9.030;2024-02-15T08:34:55;11.90;99.90
16283;DHT22;8249;48.708;9.030;2024-02-15T08:37:23;11.80;99.90
16283;DHT22;8249;48.708;9.030;2024-02-15T08:39:49;11.90;99.90
16283;DHT22;8249;48.708;9.030;2024-02-15T08:42:19;11.90;99.90
16283;DHT22;8249;48.708;9.030;2024-02-15T08:44:47;12.10;99.90
16283;DHT22;8249;48.708;9.030;2024-02-15T08:47:14;12.30;99.90
16283;DHT22;8249;48.708;9.030;2024-02-15T08:49:41;12.50;99.90
16283;DHT22;8249;48.708;9.030;2024-02-15T08:52:08;12.70;99.90
16283;DHT22;8249;48.708;9.030;2024-02-15T08:54:36;12.80;99.90
16283;DHT22;8249;48.708;9.030;2024-02-15T08:57:04;13.00;99.90
16283;DHT22;8249;48.708;9.030;2024-02-15T08:59:32;13.20;99.90
16283;DHT22;8249;48.708;9.030;2024-02-15T09:01:59;13.40;99.90
16283;DHT22;8249;48.708;9.030;2024-02-15T09:04:26;13.50;99.90
16283;DHT22;8249;48.708;9.030;2024-02-15T09:06:53;13.90;99.90
16283;DHT22;8249;48.708;9.030;2024-02-15T09:09:20;14.40;99.90
16283;DHT22;8249;48.708;9.030;2024-02-15T09:11:47;14.70;99.90
16283;DHT22;8249;48.708;9.030;2024-02-15T09:14:13;14.90;99.90
16283;DHT22;8249;48.708;9.030;2024-02-15T09:16:42;15.00;99.90
16283;DHT22;8249;48.708;9.030;2024-02-15T09:19:08;15.20;99.90
16283;DHT22;8249;48.708;9.030;2024-02-15T09:21:35;15.50;99.90
16283;DHT22;8249;48.708;9.030;2024-02-15T09:24:02;15.90;99.90
16283;DHT22;8249;48.708;9.030;2024-02-15T09:26:29;16.00;99.90
16283;DHT22;8249;48.708;9.030;2024-02-15T09:28:56;16.20;99.90
16283;DHT22;8249;48.708;9.030;2024-02-15T09:31:23;16.30;99.90
16283;DHT22;8249;48.708;9.030;2024-02-15T09:33:52;16.50;99.90
16283;DHT22;8249;48.708;9.030;2024-02-15T09:36:19;16.50;99.90
16283;DHT22;8249;48.708;9.030;2024-02-15T09:38:45;17.10;99.90
16283;DHT22;8249;48.708;9.030;2024-02-15T09:41:13;17.20;99.90
16283;DHT22;8249;48.708;9.030;2024-02-15T09:43:40;17.70;99.90
16283;DHT22;8249;48.708;9.030;2024-02-15T09:46:08;17.90;99.90
16283;DHT22;8249;48.708;9.030;2024-02-15T09:48:35;18.40;99.90
16283;DHT22;8249;48.708;9.030;2024-02-15T09:51:04;18.50;99.90
16283;DHT22;8249;48.708;9.030;2024-02-15T09:53:34;19.10;99.90
16283;DHT22;8249;48.708;9.030;2024-02-15T09:56:01;19.70;99.90
16283;DHT22;8249;48.708;9.030;2024-02-15T09:58:30;20.20;99.90
16283;DHT22;8249;48.708;9.030;2024-02-15T10:01:01;20.70;99.90
16283;DHT22;8249;48.708;9.030;2024-02-15T10:03:35;21.10;99.90
16283;DHT22;8249;48.708;9.030;2024-02-15T10:06:05;21.20;99.90
16283;DHT22;8249;48.708;9.030;2024-02-15T10:08:32;21.00;99.90
16283;DHT22;8249;48.708;9.030;2024-02-15T10:11:06;21.30;99.90
16283;DHT22;8249;48.708;9.030;2024-02-15T10:13:34;21.20;99.90
16283;DHT22;8249;48.708;9.030;2024-02-15T10:16:14;21.50;99.90
16283;DHT22;8249;48.708;9.030;2024-02-15T10:18:42;21.60;99.90
16283;DHT22;8249;48.708;9.030;2024-02-15T10:21:10;22.10;99.90
16283;DHT22;8249;48.708;9.030;2024-02-15T10:24:02;22.80;99.50
16283;DHT22;8249;48.708;9.030;2024-02-15T10:26:31;22.90;98.20
16283;DHT22;8249;48.708;9.030;2024-02-15T10:29:08;22.80;97.60
16283;DHT22;8249;48.708;9.030;2024-02-15T10:31:36;22.60;96.90
16283;DHT22;8249;48.708;9.030;2024-02-15T10:34:05;22.50;96.70
16283;DHT22;8249;48.708;9.030;2024-02-15T10:36:34;22.40;96.90
16283;DHT22;8249;48.708;9.030;2024-02-15T10:39:11;22.80;96.20
16283;DHT22;8249;48.708;9.030;2024-02-15T10:41:44;22.50;96.10
16283;DHT22;8249;48.708;9.030;2024-02-15T10:44:15;22.50;96.60
16283;DHT22;8249;48.708;9.030;2024-02-15T10:46:44;22.60;95.80
16283;DHT22;8249;48.708;9.030;2024-02-15T10:49:12;21.80;96.50
16283;DHT22;8249;48.708;9.030;2024-02-15T10:51:44;21.40;97.20
16283;DHT22;8249;48.708;9.030;2024-02-15T10:54:12;21.20;97.20
16283;DHT22;8249;48.708;9.030;2024-02-15T10:56:44;21.50;97.70
16283;DHT22;8249;48.708;9.030;2024-02-15T10:59:16;21.70;96.20
16283;DHT22;8249;48.708;9.030;2024-02-15T11:01:45;21.90;95.60
16283;DHT22;8249;48.708;9.030;2024-02-15T11:04:15;21.60;96.10
16283;DHT22;8249;48.708;9.030;2024-02-15T11:06:43;21.70;96.20
16283;DHT22;8249;48.708;9.030;2024-02-15T11:09:20;21.70;95.80
16283;DHT22;8249;48.708;9.030;2024-02-15T11:11:50;22.30;96.40
16283;DHT22;8249;48.708;9.030;2024-02-15T11:14:28;22.30;95.20
16283;DHT22;8249;48.708;9.030;2024-02-15T11:16:57;22.00;95.20
16283;DHT22;8249;48.708;9.030;2024-02-15T11:19:44;22.50;95.30
16283;DHT22;8249;48.708;9.030;2024-02-15T11:22:15;22.50;94.80
16283;DHT22;8249;48.708;9.030;2024-02-15T11:24:47;22.60;94.50
16283;DHT22;8249;48.708;9.030;2024-02-15T11:27:24;22.80;93.80
16283;DHT22;8249;48.708;9.030;2024-02-15T11:29:54;22.50;93.80
16283;DHT22;8249;48.708;9.030;2024-02-15T11:32:43;22.40;93.40
16283;DHT22;8249;48.708;9.030;2024-02-15T11:35:16;22.50;93.80
16283;DHT22;8249;48.708;9.030;2024-02-15T11:37:56;22.80;92.90
16283;DHT22;8249;48.708;9.030;2024-02-15T11:43:53;23.00;92.80
16283;DHT22;8249;48.708;9.030;2024-02-15T11:46:24;22.40;93.10
16283;DHT22;8249;48.708;9.030;2024-02-15T11:49:03;22.00;93.30
16283;DHT22;8249;48.708;9.030;2024-02-15T11:51:33;21.70;94.00
16283;DHT22;8249;48.708;9.030;2024-02-15T11:54:05;21.60;94.80
16283;DHT22;8249;48.708;9.030;2024-02-15T11:56:32;21.90;94.30
16283;DHT22;8249;48.708;9.030;2024-02-15T11:59:12;22.00;93.30
16283;DHT22;8249;48.708;9.030;2024-02-15T12:01:54;22.20;93.70
16283;DHT22;8249;48.708;9.030;2024-02-15T12:04:39;22.20;92.60
16283;DHT22;8249;48.708;9.030;2024-02-15T12:07:23;21.80;92.80
16283;DHT22;8249;48.708;9.030;2024-02-15T12:10:15;21.60;92.80
16283;DHT22;8249;48.708;9.030;2024-02-15T12:13:00;21.50;92.80
16283;DHT22;8249;48.708;9.030;2024-02-15T12:15:56;21.00;93.40
16283;DHT22;8249;48.708;9.030;2024-02-15T12:18:42;20.80;92.70
16283;DHT22;8249;48.708;9.030;2024-02-15T12:21:13;20.80;92.50
16283;DHT22;8249;48.708;9.030;2024-02-15T12:23:41;20.40;92.60
16283;DHT22;8249;48.708;9.030;2024-02-15T12:26:10;20.20;92.80
16283;DHT22;8249;48.708;9.030;2024-02-15T12:28:43;20.00;92.90
16283;DHT22;8249;48.708;9.030;2024-02-15T12:31:10;19.90;93.40
16283;DHT22;8249;48.708;9.030;2024-02-15T12:33:39;19.90;92.70
16283;DHT22;8249;48.708;9.030;2024-02-15T12:36:06;19.70;92.80
16283;DHT22;8249;48.708;9.030;2024-02-15T12:38:34;19.70;92.90
16283;DHT22;8249;48.708;9.030;2024-02-15T12:41:03;19.90;92.40
16283;DHT22;8249;48.708;9.030;2024-02-15T12:43:35;19.90;92.60
16283;DHT22;8249;48.708;9.030;2024-02-15T12:46:02;19.60;93.10
16283;DHT22;8249;48.708;9.030;2024-02-15T12:48:31;20.10;92.80
16283;DHT22;8249;48.708;9.030;2024-02-15T12:50:59;20.10;92.90
16283;DHT22;8249;48.708;9.030;2024-02-15T12:53:26;20.20;92.50
16283;DHT22;8249;48.708;9.030;2024-02-15T12:55:53;19.80;92.90
16283;DHT22;8249;48.708;9.030;2024-02-15T12:58:21;19.50;93.50
16283;DHT22;8249;48.708;9.030;2024-02-15T13:00:54;19.30;93.80
16283;DHT22;8249;48.708;9.030;2024-02-15T13:03:24;19.20;93.80
16283;DHT22;8249;48.708;9.030;2024-02-15T13:05:51;19.10;93.90
16283;DHT22;8249;48.708;9.030;2024-02-15T13:08:18;19.10;94.60
16283;DHT22;8249;48.708;9.030;2024-02-15T13:10:45;19.00;94.50
16283;DHT22;8249;48.708;9.030;2024-02-15T13:13:12;18.80;94.30
16283;DHT22;8249;48.708;9.030;2024-02-15T13:15:41;18.90;94.80
16283;DHT22;8249;48.708;9.030;2024-02-15T13:18:09;18.70;95.00
16283;DHT22;8249;48.708;9.030;2024-02-15T13:20:36;18.50;95.50
16283;DHT22;8249;48.708;9.030;2024-02-15T13:23:04;18.70;95.60
16283;DHT22;8249;48.708;9.030;2024-02-15T13:25:34;18.70;95.20
16283;DHT22;8249;48.708;9.030;2024-02-15T13:28:03;18.70;95.30
16283;DHT22;8249;48.708;9.030;2024-02-15T13:30:30;18.50;95.40
16283;DHT22;8249;48.708;9.030;2024-02-15T13:32:57;18.40;96.10
16283;DHT22;8249;48.708;9.030;2024-02-15T13:35:26;18.40;95.90
16283;DHT22;8249;48.708;9.030;2024-02-15T13:37:54;18.50;96.20
16283;DHT22;8249;48.708;9.030;2024-02-15T13:40:22;18.70;96.40
16283;DHT22;8249;48.708;9.030;2024-02-15T13:42:51;19.20;96.00
16283;DHT22;8249;48.708;9.030;2024-02-15T13:45:20;19.50;95.50
16283;DHT22;8249;48.708;9.030;2024-02-15T13:47:48;19.90;95.50
16283;DHT22;8249;48.708;9.030;2024-02-15T13:50:16;20.10;94.70
16283;DHT22;8249;48.708;9.030;2024-02-15T13:52:45;19.90;94.50
16283;DHT22;8249;48.708;9.030;2024-02-15T13:55:14;19.60;94.60
16283;DHT22;8249;48.708;9.030;2024-02-15T13:57:42;19.40;95.30
16283;DHT22;8249;48.708;9.030;2024-02-15T14:00:10;19.30;95.00
16283;DHT22;8249;48.708;9.030;2024-02-15T14:02:47;19.20;95.20
16283;DHT22;8249;48.708;9.030;2024-02-15T14:05:14;19.10;95.70
16283;DHT22;8249;48.708;9.030;2024-02-15T14:07:47;19.20;95.60
16283;DHT22;8249;48.708;9.030;2024-02-15T14:10:15;19.10;95.60
16283;DHT22;8249;48.708;9.030;2024-02-15T14:12:44;19.00;96.40
16283;DHT22;8249;48.708;9.030;2024-02-15T14:15:10;18.90;95.80
16283;DHT22;8249;48.708;9.030;2024-02-15T14:17:38;18.80;95.50
16283;DHT22;8249;48.708;9.030;2024-02-15T14:20:06;18.70;95.80
16283;DHT22;8249;48.708;9.030;2024-02-15T14:22:34;18.90;95.90
16283;DHT22;8249;48.708;9.030;2024-02-15T14:25:03;19.10;96.00
16283;DHT22;8249;48.708;9.030;2024-02-15T14:27:31;19.20;96.10
16283;DHT22;8249;48.708;9.030;2024-02-15T14:29:58;19.30;95.80
16283;DHT22;8249;48.708;9.030;2024-02-15T14:32:45;19.40;96.10
16283;DHT22;8249;48.708;9.030;2024-02-15T14:35:30;19.60;96.30
16283;DHT22;8249;48.708;9.030;2024-02-15T14:38:01;19.70;95.70
16283;DHT22;8249;48.708;9.030;2024-02-15T14:40:33;19.90;95.70
16283;DHT22;8249;48.708;9.030;2024-02-15T14:42:59;19.90;95.50
16283;DHT22;8249;48.708;9.030;2024-02-15T14:45:26;20.00;95.30
16283;DHT22;8249;48.708;9.030;2024-02-15T14:47:53;19.90;95.10
16283;DHT22;8249;48.708;9.030;2024-02-15T14:50:20;19.80;95.00
16283;DHT22;8249;48.708;9.030;2024-02-15T14:52:49;19.70;95.00
16283;DHT22;8249;48.708;9.030;2024-02-15T14:55:17;19.90;95.30
16283;DHT22;8249;48.708;9.030;2024-02-15T14:57:46;19.90;95.40
16283;DHT22;8249;48.708;9.030;2024-02-15T15:00:14;19.80;95.80
16283;DHT22;8249;48.708;9.030;2024-02-15T15:02:45;19.70;95.70
16283;DHT22;8249;48.708;9.030;2024-02-15T15:05:12;19.40;96.00
16283;DHT22;8249;48.708;9.030;2024-02-15T15:08:02;19.30;96.30
16283;DHT22;8249;48.708;9.030;2024-02-15T15:10:47;19.20;96.60
16283;DHT22;8249;48.708;9.030;2024-02-15T15:13:47;18.80;96.40
16283;DHT22;8249;48.708;9.030;2024-02-15T15:16:14;18.50;97.30
16283;DHT22;8249;48.708;9.030;2024-02-15T15:18:43;18.50;97.30
16283;DHT22;8249;48.708;9.030;2024-02-15T15:21:11;18.40;97.40
16283;DHT22;8249;48.708;9.030;2024-02-15T15:23:38;18.30;97.70
16283;DHT22;8249;48.708;9.030;2024-02-15T15:26:05;18.20;98.00
16283;DHT22;8249;48.708;9.030;2024-02-15T15:28:32;17.90;98.20
16283;DHT22;8249;48.708;9.030;2024-02-15T15:31:00;17.80;98.50
16283;DHT22;8249;48.708;9.030;2024-02-15T15:33:27;17.60;98.70
16283;DHT22;8249;48.708;9.030;2024-02-15T15:35:54;17.50;98.90
16283;DHT22;8249;48.708;9.030;2024-02-15T15:38:21;17.40;99.30
16283;DHT22;8249;48.708;9.030;2024-02-15T15:40:48;17.30;99.40
16283;DHT22;8249;48.708;9.030;2024-02-15T15:43:16;17.10;99.80
16283;DHT22;8249;48.708;9.030;2024-02-15T15:45:45;17.00;99.90
16283;DHT22;8249;48.708;9.030;2024-02-15T15:48:13;16.80;99.90
16283;DHT22;8249;48.708;9.030;2024-02-15T15:50:40;16.70;99.90
16283;DHT22;8249;48.708;9.030;2024-02-15T15:53:08;16.60;99.90
16283;DHT22;8249;48.708;9.030;2024-02-15T15:55:36;16.50;99.90
16283;DHT22;8249;48.708;9.030;2024-02-15T15:58:03;16.30;99.90
16283;DHT22;8249;48.708;9.030;2024-02-15T16:00:32;16.20;99.90
16283;DHT22;8249;48.708;9.030;2024-02-15T16:03:00;16.10;99.90
16283;DHT22;8249;48.708;9.030;2024-02-15T16:05:31;16.00;99.90
16283;DHT22;8249;48.708;9.030;2024-02-15T16:07:58;15.90;99.90
16283;DHT22;8249;48.708;9.030;2024-02-15T16:10:25;15.80;99.90